sensor_id;sensor_type;location;lat;lon;timestamp;pressure;altitude;pressure_sealevel;temperature;humidity
20909;BME280;10614;53.198;6.570;2022-08-19T00:01:09;101421.44;;;18.40;95.05
20909;BME280;10614;53.198;6.570;2022-08-19T00:03:11;101416.22;;;18.39;95.38
20909;BME280;10614;53.198;6.570;2022-08-19T00:05:14;101423.38;;;18.38;95.51
20909;BME280;10614;53.198;6.570;2022-08-19T00:07:15;101411.09;;;18.35;95.35
20909;BME280;10614;53.198;6.570;2022-08-19T00:09:17;101420.22;;;18.31;96.18
20909;BME280;10614;53.198;6.570;2022-08-19T00:11:19;101418.63;;;18.29;96.18
20909;BME280;10614;53.198;6.570;2022-08-19T00:13:21;101412.53;;;18.27;96.49
20909;BME280;10614;53.198;6.570;2022-08-19T00:15:24;101414.34;;;18.26;96.12
20909;BME280;10614;53.198;6.570;2022-08-19T00:17:25;101421.47;;;18.26;96.64
20909;BME280;10614;53.198;6.570;2022-08-19T00:19:27;101421.66;;;18.23;96.52
20909;BME280;10614;53.198;6.570;2022-08-19T00:21:28;101428.91;;;18.21;97.07
20909;BME280;10614;53.198;6.570;2022-08-19T00:23:30;101422.03;;;18.17;97.48
20909;BME280;10614;53.198;6.570;2022-08-19T00:25:34;101419.50;;;18.15;97.07
20909;BME280;10614;53.198;6.570;2022-08-19T00:27:36;101420.44;;;18.14;97.62
20909;BME280;10614;53.198;6.570;2022-08-19T00:29:37;101414.34;;;18.12;97.53
20909;BME280;10614;53.198;6.570;2022-08-19T00:31:40;101411.88;;;18.09;97.57
20909;BME280;10614;53.198;6.570;2022-08-19T00:33:43;101409.28;;;18.07;98.21
20909;BME280;10614;53.198;6.570;2022-08-19T00:35:45;101411.22;;;18.05;98.42
20909;BME280;10614;53.198;6.570;2022-08-19T00:37:47;101409.59;;;18.03;98.82
20909;BME280;10614;53.198;6.570;2022-08-19T00:39:48;101415.94;;;18.00;98.87
20909;BME280;10614;53.198;6.570;2022-08-19T00:41:51;101412.56;;;17.98;98.62
20909;BME280;10614;53.198;6.570;2022-08-19T00:43:56;101409.13;;;17.96;99.07
20909;BME280;10614;53.198;6.570;2022-08-19T00:45:58;101402.06;;;17.95;99.80
20909;BME280;10614;53.198;6.570;2022-08-19T00:48:03;101395.97;;;17.93;99.67
20909;BME280;10614;53.198;6.570;2022-08-19T00:50:05;101398.84;;;17.90;99.19
20909;BME280;10614;53.198;6.570;2022-08-19T00:52:08;101400.75;;;17.88;100.00
20909;BME280;10614;53.198;6.570;2022-08-19T00:54:10;101405.22;;;17.87;100.00
20909;BME280;10614;53.198;6.570;2022-08-19T00:56:12;101395.53;;;17.86;99.74
20909;BME280;10614;53.198;6.570;2022-08-19T00:58:17;101398.28;;;17.85;99.91
20909;BME280;10614;53.198;6.570;2022-08-19T01:00:19;101399.22;;;17.84;100.00
20909;BME280;10614;53.198;6.570;2022-08-19T01:02:20;101398.47;;;17.82;100.00
20909;BME280;10614;53.198;6.570;2022-08-19T01:04:24;101395.88;;;17.80;100.00
20909;BME280;10614;53.198;6.570;2022-08-19T01:06:26;101394.25;;;17.78;100.00
20909;BME280;10614;53.198;6.570;2022-08-19T01:08:28;101389.97;;;17.75;100.00
20909;BME280;10614;53.198;6.570;2022-08-19T01:10:31;101385.69;;;17.72;100.00
20909;BME280;10614;53.198;6.570;2022-08-19T01:12:34;101391.94;;;17.71;100.00
20909;BME280;10614;53.198;6.570;2022-08-19T01:14:36;101380.53;;;17.69;100.00
20909;BME280;10614;53.198;6.570;2022-08-19T01:16:38;101389.56;;;17.67;100.00
20909;BME280;10614;53.198;6.570;2022-08-19T01:18:41;101389.69;;;17.65;100.00
20909;BME280;10614;53.198;6.570;2022-08-19T01:20:44;101382.72;;;17.63;100.00
20909;BME280;10614;53.198;6.570;2022-08-19T01:22:49;101386.25;;;17.63;100.00
20909;BME280;10614;53.198;6.570;2022-08-19T01:24:51;101386.41;;;17.60;100.00
20909;BME280;10614;53.198;6.570;2022-08-19T01:26:52;101385.56;;;17.60;100.00
20909;BME280;10614;53.198;6.570;2022-08-19T01:28:55;101386.63;;;17.57;100.00
20909;BME280;10614;53.198;6.570;2022-08-19T01:30:57;101383.19;;;17.55;100.00
20909;BME280;10614;53.198;6.570;2022-08-19T01:32:59;101387.66;;;17.55;100.00
20909;BME280;10614;53.198;6.570;2022-08-19T01:35:01;101385.09;;;17.53;100.00
20909;BME280;10614;53.198;6.570;2022-08-19T01:37:05;101386.91;;;17.52;100.00
20909;BME280;10614;53.198;6.570;2022-08-19T01:39:11;101386.91;;;17.52;100.00
20909;BME280;10614;53.198;6.570;2022-08-19T01:41:12;101387.16;;;17.48;100.00
20909;BME280;10614;53.198;6.570;2022-08-19T01:43:14;101391.72;;;17.46;100.00
20909;BME280;10614;53.198;6.570;2022-08-19T01:45:16;101393.72;;;17.42;100.00
20909;BME280;10614;53.198;6.570;2022-08-19T01:47:17;101392.00;;;17.41;100.00
20909;BME280;10614;53.198;6.570;2022-08-19T01:49:20;101387.84;;;17.37;100.00
20909;BME280;10614;53.198;6.570;2022-08-19T01:51:22;101391.50;;;17.35;100.00
20909;BME280;10614;53.198;6.570;2022-08-19T01:53:23;101387.34;;;17.30;100.00
20909;BME280;10614;53.198;6.570;2022-08-19T01:55:26;101383.13;;;17.26;100.00
20909;BME280;10614;53.198;6.570;2022-08-19T01:57:28;101379.72;;;17.24;100.00
20909;BME280;10614;53.198;6.570;2022-08-19T01:59:29;101379.91;;;17.21;100.00
20909;BME280;10614;53.198;6.570;2022-08-19T02:01:32;101382.56;;;17.21;100.00
20909;BME280;10614;53.198;6.570;2022-08-19T02:03:34;101379.13;;;17.19;100.00
20909;BME280;10614;53.198;6.570;2022-08-19T02:05:36;101384.66;;;17.16;100.00
20909;BME280;10614;53.198;6.570;2022-08-19T02:07:38;101386.53;;;17.14;100.00
20909;BME280;10614;53.198;6.570;2022-08-19T02:09:39;101390.13;;;17.13;100.00
20909;BME280;10614;53.198;6.570;2022-08-19T02:11:42;101392.00;;;17.11;100.00
20909;BME280;10614;53.198;6.570;2022-08-19T02:13:44;101392.19;;;17.08;100.00
20909;BME280;10614;53.198;6.570;2022-08-19T02:15:45;101389.72;;;17.05;100.00
20909;BME280;10614;53.198;6.570;2022-08-19T02:17:47;101390.78;;;17.02;100.00
20909;BME280;10614;53.198;6.570;2022-08-19T02:22:27;101389.22;;;16.98;100.00
20909;BME280;10614;53.198;6.570;2022-08-19T02:24:28;101397.28;;;16.97;100.00
20909;BME280;10614;53.198;6.570;2022-08-19T02:26:30;101396.50;;;16.95;100.00
20909;BME280;10614;53.198;6.570;2022-08-19T02:28:33;101390.53;;;16.91;100.00
20909;BME280;10614;53.198;6.570;2022-08-19T02:30:35;101391.56;;;16.88;100.00
20909;BME280;10614;53.198;6.570;2022-08-19T02:32:36;101398.69;;;16.88;100.00
20909;BME280;10614;53.198;6.570;2022-08-19T02:34:38;101387.19;;;16.87;100.00
20909;BME280;10614;53.198;6.570;2022-08-19T02:36:39;101396.03;;;16.88;100.00
20909;BME280;10614;53.198;6.570;2022-08-19T02:38:40;101391.72;;;16.85;100.00
20909;BME280;10614;53.198;6.570;2022-08-19T02:40:47;101388.31;;;16.83;100.00
20909;BME280;10614;53.198;6.570;2022-08-19T02:42:49;101396.47;;;16.80;100.00
20909;BME280;10614;53.198;6.570;2022-08-19T02:44:52;101397.47;;;16.78;100.00
20909;BME280;10614;53.198;6.570;2022-08-19T02:46:56;101401.06;;;16.77;100.00
20909;BME280;10614;53.198;6.570;2022-08-19T02:48:59;101397.53;;;16.76;100.00
20909;BME280;10614;53.198;6.570;2022-08-19T02:51:02;101395.06;;;16.73;100.00
20909;BME280;10614;53.198;6.570;2022-08-19T02:53:03;101402.25;;;16.71;100.00
20909;BME280;10614;53.198;6.570;2022-08-19T02:55:06;101398.94;;;16.67;100.00
20909;BME280;10614;53.198;6.570;2022-08-19T02:57:07;101400.06;;;16.63;100.00
20909;BME280;10614;53.198;6.570;2022-08-19T02:59:09;101393.09;;;16.61;100.00
20909;BME280;10614;53.198;6.570;2022-08-19T03:01:18;101391.38;;;16.60;100.00
20909;BME280;10614;53.198;6.570;2022-08-19T03:03:20;101387.88;;;16.59;100.00
20909;BME280;10614;53.198;6.570;2022-08-19T03:05:21;101386.16;;;16.58;100.00
20909;BME280;10614;53.198;6.570;2022-08-19T03:07:23;101387.03;;;16.59;100.00
20909;BME280;10614;53.198;6.570;2022-08-19T03:09:24;101389.75;;;16.57;100.00
20909;BME280;10614;53.198;6.570;2022-08-19T03:11:28;101392.50;;;16.56;100.00
20909;BME280;10614;53.198;6.570;2022-08-19T03:13:29;101393.38;;;16.56;100.00
20909;BME280;10614;53.198;6.570;2022-08-19T03:15:31;101393.44;;;16.55;100.00
20909;BME280;10614;53.198;6.570;2022-08-19T03:17:34;101388.22;;;16.53;100.00
20909;BME280;10614;53.198;6.570;2022-08-19T03:19:35;101387.34;;;16.53;100.00
20909;BME280;10614;53.198;6.570;2022-08-19T03:21:38;101386.50;;;16.52;100.00
20909;BME280;10614;53.198;6.570;2022-08-19T03:23:39;101374.94;;;16.53;100.00
20909;BME280;10614;53.198;6.570;2022-08-19T03:25:41;101376.72;;;16.53;100.00
20909;BME280;10614;53.198;6.570;2022-08-19T03:27:43;101374.25;;;16.50;100.00
20909;BME280;10614;53.198;6.570;2022-08-19T03:29:45;101375.19;;;16.49;100.00
20909;BME280;10614;53.198;6.570;2022-08-19T03:31:47;101380.53;;;16.49;100.00
20909;BME280;10614;53.198;6.570;2022-08-19T03:33:51;101380.59;;;16.47;100.00
20909;BME280;10614;53.198;6.570;2022-08-19T03:35:59;101372.69;;;16.45;100.00
20909;BME280;10614;53.198;6.570;2022-08-19T03:38:01;101374.56;;;16.43;100.00
20909;BME280;10614;53.198;6.570;2022-08-19T03:40:02;101372.03;;;16.42;100.00
20909;BME280;10614;53.198;6.570;2022-08-19T03:42:04;101371.06;;;16.43;100.00
20909;BME280;10614;53.198;6.570;2022-08-19T03:44:06;101370.22;;;16.42;100.00
20909;BME280;10614;53.198;6.570;2022-08-19T03:46:09;101374.69;;;16.42;100.00
20909;BME280;10614;53.198;6.570;2022-08-19T03:48:11;101381.03;;;16.39;100.00
20909;BME280;10614;53.198;6.570;2022-08-19T03:50:14;101377.53;;;16.39;100.00
20909;BME280;10614;53.198;6.570;2022-08-19T03:52:15;101386.34;;;16.39;100.00
20909;BME280;10614;53.198;6.570;2022-08-19T03:54:18;101391.81;;;16.36;100.00
20909;BME280;10614;53.198;6.570;2022-08-19T03:56:20;101392.84;;;16.34;100.00
20909;BME280;10614;53.198;6.570;2022-08-19T03:58:22;101388.47;;;16.33;100.00
20909;BME280;10614;53.198;6.570;2022-08-19T04:00:24;101387.63;;;16.32;100.00
20909;BME280;10614;53.198;6.570;2022-08-19T04:02:26;101387.69;;;16.31;100.00
20909;BME280;10614;53.198;6.570;2022-08-19T04:04:28;101380.69;;;16.30;100.00
20909;BME280;10614;53.198;6.570;2022-08-19T04:06:32;101380.69;;;16.30;100.00
20909;BME280;10614;53.198;6.570;2022-08-19T04:08:34;101386.09;;;16.28;100.00
20909;BME280;10614;53.198;6.570;2022-08-19T04:10:36;101389.59;;;16.29;100.00
20909;BME280;10614;53.198;6.570;2022-08-19T04:12:38;101382.56;;;16.28;100.00
20909;BME280;10614;53.198;6.570;2022-08-19T04:14:39;101371.06;;;16.27;100.00
20909;BME280;10614;53.198;6.570;2022-08-19T04:16:41;101372.97;;;16.25;100.00
20909;BME280;10614;53.198;6.570;2022-08-19T04:18:43;101381.03;;;16.23;100.00
20909;BME280;10614;53.198;6.570;2022-08-19T04:20:45;101367.81;;;16.22;100.00
20909;BME280;10614;53.198;6.570;2022-08-19T04:22:49;101374.94;;;16.21;100.00
20909;BME280;10614;53.198;6.570;2022-08-19T04:24:50;101369.63;;;16.21;100.00
20909;BME280;10614;53.198;6.570;2022-08-19T04:26:52;101370.56;;;16.20;100.00
20909;BME280;10614;53.198;6.570;2022-08-19T04:28:53;101374.06;;;16.21;100.00
20909;BME280;10614;53.198;6.570;2022-08-19T04:30:55;101371.59;;;16.18;100.00
20909;BME280;10614;53.198;6.570;2022-08-19T04:32:57;101377.91;;;16.15;100.00
20909;BME280;10614;53.198;6.570;2022-08-19T04:34:58;101374.50;;;16.13;100.00
20909;BME280;10614;53.198;6.570;2022-08-19T04:37:00;101378.09;;;16.12;100.00
20909;BME280;10614;53.198;6.570;2022-08-19T04:39:04;101377.25;;;16.12;100.00
20909;BME280;10614;53.198;6.570;2022-08-19T04:41:06;101387.88;;;16.12;100.00
20909;BME280;10614;53.198;6.570;2022-08-19T04:43:25;101380.81;;;16.11;100.00
20909;BME280;10614;53.198;6.570;2022-08-19T04:45:26;101387.00;;;16.11;100.00
20909;BME280;10614;53.198;6.570;2022-08-19T04:47:28;101394.09;;;16.11;100.00
20909;BME280;10614;53.198;6.570;2022-08-19T04:49:30;101379.13;;;16.10;100.00
20909;BME280;10614;53.198;6.570;2022-08-19T04:51:32;101375.50;;;16.11;100.00
20909;BME280;10614;53.198;6.570;2022-08-19T04:53:36;101367.53;;;16.11;100.00
20909;BME280;10614;53.198;6.570;2022-08-19T04:55:39;101374.66;;;16.10;100.00
20909;BME280;10614;53.198;6.570;2022-08-19T04:57:41;101379.97;;;16.10;100.00
20909;BME280;10614;53.198;6.570;2022-08-19T04:59:43;101364.88;;;16.11;100.00
20909;BME280;10614;53.198;6.570;2022-08-19T05:01:44;101368.31;;;16.13;100.00
20909;BME280;10614;53.198;6.570;2022-08-19T05:03:49;101365.66;;;16.13;100.00
20909;BME280;10614;53.198;6.570;2022-08-19T05:05:52;101358.56;;;16.13;100.00
20909;BME280;10614;53.198;6.570;2022-08-19T05:07:53;101361.13;;;16.15;100.00
20909;BME280;10614;53.198;6.570;2022-08-19T05:09:56;101363.72;;;16.16;100.00
20909;BME280;10614;53.198;6.570;2022-08-19T05:11:59;101365.41;;;16.17;100.00
20909;BME280;10614;53.198;6.570;2022-08-19T05:14:01;101363.47;;;16.21;100.00
20909;BME280;10614;53.198;6.570;2022-08-19T05:16:03;101366.78;;;16.24;100.00
20909;BME280;10614;53.198;6.570;2022-08-19T05:18:05;101363.88;;;16.29;100.00
20909;BME280;10614;53.198;6.570;2022-08-19T05:20:24;101363.72;;;16.32;100.00
20909;BME280;10614;53.198;6.570;2022-08-19T05:22:44;101368.00;;;16.35;100.00
20909;BME280;10614;53.198;6.570;2022-08-19T05:24:46;101375.72;;;16.39;100.00
20909;BME280;10614;53.198;6.570;2022-08-19T05:26:50;101379.16;;;16.41;100.00
20909;BME280;10614;53.198;6.570;2022-08-19T05:28:53;101372.81;;;16.44;100.00
20909;BME280;10614;53.198;6.570;2022-08-19T05:30:55;101374.44;;;16.46;100.00
20909;BME280;10614;53.198;6.570;2022-08-19T05:32:56;101375.19;;;16.49;100.00
20909;BME280;10614;53.198;6.570;2022-08-19T05:34:58;101367.91;;;16.52;100.00
20909;BME280;10614;53.198;6.570;2022-08-19T05:37:00;101373.13;;;16.54;100.00
20909;BME280;10614;53.198;6.570;2022-08-19T05:39:02;101362.50;;;16.54;100.00
20909;BME280;10614;53.198;6.570;2022-08-19T05:41:06;101355.31;;;16.56;100.00
20909;BME280;10614;53.198;6.570;2022-08-19T05:43:08;101358.75;;;16.58;100.00
20909;BME280;10614;53.198;6.570;2022-08-19T05:45:11;101347.22;;;16.57;100.00
20909;BME280;10614;53.198;6.570;2022-08-19T05:47:13;101345.44;;;16.58;100.00
20909;BME280;10614;53.198;6.570;2022-08-19T05:49:15;101345.44;;;16.58;100.00
20909;BME280;10614;53.198;6.570;2022-08-19T05:51:17;101350.78;;;16.58;100.00
20909;BME280;10614;53.198;6.570;2022-08-19T05:53:18;101347.16;;;16.59;100.00
20909;BME280;10614;53.198;6.570;2022-08-19T05:55:20;101348.78;;;16.61;100.00
20909;BME280;10614;53.198;6.570;2022-08-19T05:57:22;101359.34;;;16.63;100.00
20909;BME280;10614;53.198;6.570;2022-08-19T05:59:24;101353.06;;;16.64;100.00
20909;BME280;10614;53.198;6.570;2022-08-19T06:01:26;101351.25;;;16.64;100.00
20909;BME280;10614;53.198;6.570;2022-08-19T06:03:28;101350.41;;;16.64;100.00
20909;BME280;10614;53.198;6.570;2022-08-19T06:05:30;101362.75;;;16.65;100.00
20909;BME280;10614;53.198;6.570;2022-08-19T06:07:32;101348.50;;;16.66;100.00
20909;BME280;10614;53.198;6.570;2022-08-19T06:09:33;101351.09;;;16.67;100.00
20909;BME280;10614;53.198;6.570;2022-08-19T06:11:36;101351.09;;;16.67;100.00
20909;BME280;10614;53.198;6.570;2022-08-19T06:13:38;101343.13;;;16.67;100.00
20909;BME280;10614;53.198;6.570;2022-08-19T06:15:39;101346.53;;;16.70;100.00
20909;BME280;10614;53.198;6.570;2022-08-19T06:17:45;101352.53;;;16.73;100.00
20909;BME280;10614;53.198;6.570;2022-08-19T06:19:46;101349.69;;;16.76;100.00
20909;BME280;10614;53.198;6.570;2022-08-19T06:21:51;101344.38;;;16.76;100.00
20909;BME280;10614;53.198;6.570;2022-08-19T06:23:53;101349.56;;;16.79;100.00
20909;BME280;10614;53.198;6.570;2022-08-19T06:25:54;101351.19;;;16.82;100.00
20909;BME280;10614;53.198;6.570;2022-08-19T06:27:56;101348.44;;;16.83;100.00
20909;BME280;10614;53.198;6.570;2022-08-19T06:29:57;101346.53;;;16.85;100.00
20909;BME280;10614;53.198;6.570;2022-08-19T06:31:59;101337.53;;;16.88;100.00
20909;BME280;10614;53.198;6.570;2022-08-19T06:34:03;101339.25;;;16.89;100.00
20909;BME280;10614;53.198;6.570;2022-08-19T06:36:05;101342.56;;;16.93;100.00
20909;BME280;10614;53.198;6.570;2022-08-19T06:38:06;101351.31;;;16.95;100.00
20909;BME280;10614;53.198;6.570;2022-08-19T06:40:09;101349.34;;;16.98;100.00
20909;BME280;10614;53.198;6.570;2022-08-19T06:42:12;101346.59;;;17.00;100.00
20909;BME280;10614;53.198;6.570;2022-08-19T06:44:16;101338.50;;;17.01;100.00
20909;BME280;10614;53.198;6.570;2022-08-19T06:46:18;101345.44;;;17.04;100.00
20909;BME280;10614;53.198;6.570;2022-08-19T06:48:19;101344.41;;;17.06;100.00
20909;BME280;10614;53.198;6.570;2022-08-19T06:50:22;101339.84;;;17.08;100.00
20909;BME280;10614;53.198;6.570;2022-08-19T06:52:24;101344.13;;;17.11;100.00
20909;BME280;10614;53.198;6.570;2022-08-19T06:54:26;101343.09;;;17.14;100.00
20909;BME280;10614;53.198;6.570;2022-08-19T06:56:29;101342.94;;;17.17;100.00
20909;BME280;10614;53.198;6.570;2022-08-19T06:58:31;101352.53;;;17.19;100.00
20909;BME280;10614;53.198;6.570;2022-08-19T07:00:33;101348.81;;;17.22;100.00
20909;BME280;10614;53.198;6.570;2022-08-19T07:02:34;101352.16;;;17.25;100.00
20909;BME280;10614;53.198;6.570;2022-08-19T07:04:38;101349.31;;;17.28;100.00
20909;BME280;10614;53.198;6.570;2022-08-19T07:06:41;101354.25;;;17.35;100.00
20909;BME280;10614;53.198;6.570;2022-08-19T07:08:43;101353.97;;;17.39;100.00
20909;BME280;10614;53.198;6.570;2022-08-19T07:10:44;101348.38;;;17.44;100.00
20909;BME280;10614;53.198;6.570;2022-08-19T07:12:46;101357.03;;;17.47;100.00
20909;BME280;10614;53.198;6.570;2022-08-19T07:14:49;101358.66;;;17.50;100.00
20909;BME280;10614;53.198;6.570;2022-08-19T07:16:51;101358.47;;;17.53;100.00
20909;BME280;10614;53.198;6.570;2022-08-19T07:18:55;101348.22;;;17.61;100.00
20909;BME280;10614;53.198;6.570;2022-08-19T07:21:02;101356.78;;;17.66;100.00
20909;BME280;10614;53.198;6.570;2022-08-19T07:23:07;101349.06;;;17.76;100.00
20909;BME280;10614;53.198;6.570;2022-08-19T07:25:09;101350.53;;;17.82;100.00
20909;BME280;10614;53.198;6.570;2022-08-19T07:27:11;101355.47;;;17.88;100.00
20909;BME280;10614;53.198;6.570;2022-08-19T07:29:14;101350.53;;;17.96;100.00
20909;BME280;10614;53.198;6.570;2022-08-19T07:31:17;101350.25;;;18.01;100.00
20909;BME280;10614;53.198;6.570;2022-08-19T07:33:19;101349.84;;;18.07;100.00
20909;BME280;10614;53.198;6.570;2022-08-19T07:35:21;101352.31;;;18.10;100.00
20909;BME280;10614;53.198;6.570;2022-08-19T07:37:23;101354.50;;;18.18;100.00
20909;BME280;10614;53.198;6.570;2022-08-19T07:39:29;101347.91;;;18.23;100.00
20909;BME280;10614;53.198;6.570;2022-08-19T07:41:31;101347.59;;;18.28;100.00
20909;BME280;10614;53.198;6.570;2022-08-19T07:43:32;101351.72;;;18.33;100.00
20909;BME280;10614;53.198;6.570;2022-08-19T07:45:34;101346.06;;;18.38;100.00
20909;BME280;10614;53.198;6.570;2022-08-19T07:47:35;101352.13;;;18.40;100.00
20909;BME280;10614;53.198;6.570;2022-08-19T07:49:37;101353.88;;;18.41;100.00
20909;BME280;10614;53.198;6.570;2022-08-19T07:51:39;101353.34;;;18.49;100.00
20909;BME280;10614;53.198;6.570;2022-08-19T07:53:40;101356.69;;;18.52;100.00
20909;BME280;10614;53.198;6.570;2022-08-19T07:55:46;101362.56;;;18.58;100.00
20909;BME280;10614;53.198;6.570;2022-08-19T07:57:48;101348.09;;;18.62;100.00
20909;BME280;10614;53.198;6.570;2022-08-19T07:59:49;101354.81;;;18.67;100.00
20909;BME280;10614;53.198;6.570;2022-08-19T08:01:51;101355.66;;;18.68;100.00
20909;BME280;10614;53.198;6.570;2022-08-19T08:03:54;101356.56;;;18.68;100.00
20909;BME280;10614;53.198;6.570;2022-08-19T08:06:14;101357.19;;;18.72;100.00
20909;BME280;10614;53.198;6.570;2022-08-19T08:08:33;101349.75;;;18.77;100.00
20909;BME280;10614;53.198;6.570;2022-08-19T08:10:53;101362.69;;;18.83;100.00
20909;BME280;10614;53.198;6.570;2022-08-19T08:12:55;101363.03;;;18.91;100.00
20909;BME280;10614;53.198;6.570;2022-08-19T08:14:58;101369.66;;;18.98;100.00
20909;BME280;10614;53.198;6.570;2022-08-19T08:17:02;101383.44;;;19.05;100.00
20909;BME280;10614;53.198;6.570;2022-08-19T08:19:04;101374.19;;;19.11;100.00
20909;BME280;10614;53.198;6.570;2022-08-19T08:21:06;101379.09;;;19.17;100.00
20909;BME280;10614;53.198;6.570;2022-08-19T08:23:08;101371.75;;;19.21;100.00
20909;BME280;10614;53.198;6.570;2022-08-19T08:25:25;101372.59;;;19.21;100.00
20909;BME280;10614;53.198;6.570;2022-08-19T08:27:28;101376.03;;;19.23;100.00
20909;BME280;10614;53.198;6.570;2022-08-19T08:29:31;101376.47;;;19.30;100.00
20909;BME280;10614;53.198;6.570;2022-08-19T08:31:33;101384.03;;;19.36;100.00
20909;BME280;10614;53.198;6.570;2022-08-19T08:33:34;101380.31;;;19.38;100.00
20909;BME280;10614;53.198;6.570;2022-08-19T08:35:36;101379.34;;;19.39;100.00
20909;BME280;10614;53.198;6.570;2022-08-19T08:37:38;101380.88;;;19.44;100.00
20909;BME280;10614;53.198;6.570;2022-08-19T08:39:40;101376.47;;;19.43;100.00
20909;BME280;10614;53.198;6.570;2022-08-19T08:41:44;101383.31;;;19.47;100.00
20909;BME280;10614;53.198;6.570;2022-08-19T08:43:50;101389.09;;;19.53;100.00
20909;BME280;10614;53.198;6.570;2022-08-19T08:45:53;101387.28;;;19.67;100.00
20909;BME280;10614;53.198;6.570;2022-08-19T08:47:56;101393.06;;;19.73;100.00
20909;BME280;10614;53.198;6.570;2022-08-19T08:50:02;101404.09;;;19.81;100.00
20909;BME280;10614;53.198;6.570;2022-08-19T08:52:05;101404.72;;;19.85;100.00
20909;BME280;10614;53.198;6.570;2022-08-19T08:54:07;101402.38;;;19.93;100.00
20909;BME280;10614;53.198;6.570;2022-08-19T08:56:10;101400.31;;;19.97;100.00
20909;BME280;10614;53.198;6.570;2022-08-19T08:58:13;101398.28;;;20.00;100.00
20909;BME280;10614;53.198;6.570;2022-08-19T09:00:19;101397.97;;;20.05;100.00
20909;BME280;10614;53.198;6.570;2022-08-19T09:02:21;101403.31;;;20.05;100.00
20909;BME280;10614;53.198;6.570;2022-08-19T09:04:23;101396.25;;;20.04;100.00
20909;BME280;10614;53.198;6.570;2022-08-19T09:06:26;101397.97;;;20.05;100.00
20909;BME280;10614;53.198;6.570;2022-08-19T09:08:36;101401.50;;;20.06;100.00
20909;BME280;10614;53.198;6.570;2022-08-19T09:10:43;101396.03;;;20.07;100.00
20909;BME280;10614;53.198;6.570;2022-08-19T09:12:46;101393.16;;;20.10;100.00
20909;BME280;10614;53.198;6.570;2022-08-19T09:14:50;101388.66;;;20.11;100.00
20909;BME280;10614;53.198;6.570;2022-08-19T09:16:55;101394.75;;;20.13;100.00
20909;BME280;10614;53.198;6.570;2022-08-19T09:19:02;101390.16;;;20.15;100.00
20909;BME280;10614;53.198;6.570;2022-08-19T09:21:04;101393.78;;;20.14;100.00
20909;BME280;10614;53.198;6.570;2022-08-19T09:23:07;101397.41;;;20.13;100.00
20909;BME280;10614;53.198;6.570;2022-08-19T09:25:10;101400.94;;;20.13;100.00
20909;BME280;10614;53.198;6.570;2022-08-19T09:27:12;101395.59;;;20.13;100.00
20909;BME280;10614;53.198;6.570;2022-08-19T09:29:14;101389.28;;;20.14;100.00
20909;BME280;10614;53.198;6.570;2022-08-19T09:31:17;101389.19;;;20.16;100.00
20909;BME280;10614;53.198;6.570;2022-08-19T09:33:20;101385.66;;;20.15;100.00
20909;BME280;10614;53.198;6.570;2022-08-19T09:35:23;101390.16;;;20.15;100.00
20909;BME280;10614;53.198;6.570;2022-08-19T09:37:24;101395.25;;;20.18;100.00
20909;BME280;10614;53.198;6.570;2022-08-19T09:39:26;101384.88;;;20.26;100.00
20909;BME280;10614;53.198;6.570;2022-08-19T09:41:27;101386.75;;;20.37;100.00
20909;BME280;10614;53.198;6.570;2022-08-19T09:43:29;101392.31;;;20.47;100.00
20909;BME280;10614;53.198;6.570;2022-08-19T09:45:31;101387.03;;;20.58;100.00
20909;BME280;10614;53.198;6.570;2022-08-19T09:47:33;101388.34;;;20.65;100.00
20909;BME280;10614;53.198;6.570;2022-08-19T09:49:37;101389.78;;;20.69;100.00
20909;BME280;10614;53.198;6.570;2022-08-19T09:51:39;101390.44;;;20.73;100.00
20909;BME280;10614;53.198;6.570;2022-08-19T09:53:41;101394.69;;;20.75;100.00
20909;BME280;10614;53.198;6.570;2022-08-19T09:55:43;101387.50;;;20.76;100.00
20909;BME280;10614;53.198;6.570;2022-08-19T09:57:45;101389.25;;;20.77;100.00
20909;BME280;10614;53.198;6.570;2022-08-19T09:59:46;101385.84;;;20.86;100.00
20909;BME280;10614;53.198;6.570;2022-08-19T10:01:48;101394.91;;;20.96;98.94
20909;BME280;10614;53.198;6.570;2022-08-19T10:03:50;101388.13;;;21.03;99.28
20909;BME280;10614;53.198;6.570;2022-08-19T10:05:54;101398.59;;;21.06;98.75
20909;BME280;10614;53.198;6.570;2022-08-19T10:07:54;101388.97;;;21.04;98.90
20909;BME280;10614;53.198;6.570;2022-08-19T10:09:57;101388.22;;;21.02;98.93
20909;BME280;10614;53.198;6.570;2022-08-19T10:11:58;101390.34;;;21.10;97.99
20909;BME280;10614;53.198;6.570;2022-08-19T10:14:01;101388.19;;;21.15;97.40
20909;BME280;10614;53.198;6.570;2022-08-19T10:16:03;101388.66;;;21.20;97.53
20909;BME280;10614;53.198;6.570;2022-08-19T10:18:05;101390.53;;;21.31;97.42
20909;BME280;10614;53.198;6.570;2022-08-19T10:20:07;101386.78;;;21.33;97.08
20909;BME280;10614;53.198;6.570;2022-08-19T10:22:10;101386.94;;;21.43;95.05
20909;BME280;10614;53.198;6.570;2022-08-19T10:24:13;101386.44;;;21.49;94.65
20909;BME280;10614;53.198;6.570;2022-08-19T10:26:16;101384.88;;;21.58;92.57
20909;BME280;10614;53.198;6.570;2022-08-19T10:28:18;101387.84;;;21.66;93.02
20909;BME280;10614;53.198;6.570;2022-08-19T10:30:20;101386.59;;;21.70;92.79
20909;BME280;10614;53.198;6.570;2022-08-19T10:32:21;101383.81;;;21.71;93.24
20909;BME280;10614;53.198;6.570;2022-08-19T10:34:25;101388.31;;;21.71;93.50
20909;BME280;10614;53.198;6.570;2022-08-19T10:36:27;101389.06;;;21.73;93.64